Portada
METAR-TAF:

METAR-TAF

Aeropuertos :

Chitá, Rusia

Aeropuerto de Chitá-Kadala

latitud: 52-05N, longitud: 113-29E, altitud: 685 m

Observación

El informe se hizo hace 44 minutos, a las 10:30 UTC
Viento 10 kt del norte
Temperatura 13°C
Humedad 15%
Presión 1009 hPa
Visibilidad 10 km o más

METAR: UIAA 291030Z 36005MPS 9999 NSC 13/M13 Q1009 R29/CLRD70 NOSIG RMK QFE698/0931

Hora: 20:14 (11:14 UTC)

Pronóstico

El informe se hizo hace 1 hora y 3 minutos, a las 10:11 UTC
Pronóstico válido del 29 a las 10 UTC al 30 a las 09 UTC
Viento 14 kt del norte-noroeste con ráfagas de 29 kt
Visibilidad 10 km o más
Nubes dispersas a una altura de 4000 ft, Cumulonimbus.

TAF: UIAA 291011Z 2910/3009 34007G15MPS 9999 SCT040CB

Observaciones y pronósticos meteorológicos de más de 4000 aeropuertos (mensajes METAR y TAF).

Los puntos amarillos y rojos representan las estaciones disponibles.

Ponga el ratón en el punto deseado para ver el nombre de la estación.

Haga clic para ver las observaciones y los pronósticos meteorológicos.

Para cambiar el mapa : haga clic en los botones verdes con una cruz de color negro para hacer un zoom, en el botón verde con un guión para alejar o en las flechas verdes para mapas adyacentes.


METAR-TAF: